sensor_id;sensor_type;location;lat;lon;timestamp;P1;durP1;ratioP1;P2;durP2;ratioP2
66972;SDS011;53902;51.466;-2.586;2023-03-03T00:01:04;7.80;;;3.78;;
66972;SDS011;53902;51.466;-2.586;2023-03-03T00:03:30;10.77;;;3.65;;
66972;SDS011;53902;51.466;-2.586;2023-03-03T00:05:58;8.45;;;3.30;;
66972;SDS011;53902;51.466;-2.586;2023-03-03T00:08:24;11.98;;;3.33;;
66972;SDS011;53902;51.466;-2.586;2023-03-03T00:10:50;7.47;;;3.17;;
66972;SDS011;53902;51.466;-2.586;2023-03-03T00:13:23;4.50;;;2.67;;
66972;SDS011;53902;51.466;-2.586;2023-03-03T00:15:50;5.15;;;2.70;;
66972;SDS011;53902;51.466;-2.586;2023-03-03T00:18:27;7.25;;;2.63;;
66972;SDS011;53902;51.466;-2.586;2023-03-03T00:20:56;7.50;;;2.28;;
66972;SDS011;53902;51.466;-2.586;2023-03-03T00:25:53;4.32;;;2.83;;
66972;SDS011;53902;51.466;-2.586;2023-03-03T00:28:26;7.25;;;2.10;;
66972;SDS011;53902;51.466;-2.586;2023-03-03T00:30:59;3.22;;;1.55;;
66972;SDS011;53902;51.466;-2.586;2023-03-03T00:38:40;5.80;;;2.05;;
66972;SDS011;53902;51.466;-2.586;2023-03-03T00:41:25;3.30;;;1.48;;
66972;SDS011;53902;51.466;-2.586;2023-03-03T00:44:00;2.47;;;1.38;;
66972;SDS011;53902;51.466;-2.586;2023-03-03T00:46:51;2.47;;;1.45;;
66972;SDS011;53902;51.466;-2.586;2023-03-03T00:49:21;2.83;;;1.70;;
66972;SDS011;53902;51.466;-2.586;2023-03-03T00:51:50;4.72;;;1.90;;
66972;SDS011;53902;51.466;-2.586;2023-03-03T00:54:18;5.00;;;1.67;;
66972;SDS011;53902;51.466;-2.586;2023-03-03T00:56:46;4.10;;;1.70;;
66972;SDS011;53902;51.466;-2.586;2023-03-03T00:59:11;4.72;;;1.70;;
66972;SDS011;53902;51.466;-2.586;2023-03-03T01:01:39;3.38;;;1.50;;
66972;SDS011;53902;51.466;-2.586;2023-03-03T01:04:05;4.28;;;1.70;;
66972;SDS011;53902;51.466;-2.586;2023-03-03T01:06:30;2.58;;;1.75;;
66972;SDS011;53902;51.466;-2.586;2023-03-03T01:08:58;5.40;;;1.67;;
66972;SDS011;53902;51.466;-2.586;2023-03-03T01:11:26;2.20;;;1.23;;
66972;SDS011;53902;51.466;-2.586;2023-03-03T01:13:56;3.78;;;1.60;;
66972;SDS011;53902;51.466;-2.586;2023-03-03T01:16:24;3.97;;;1.67;;
66972;SDS011;53902;51.466;-2.586;2023-03-03T01:18:49;6.20;;;1.90;;
66972;SDS011;53902;51.466;-2.586;2023-03-03T01:21:15;5.53;;;2.17;;
66972;SDS011;53902;51.466;-2.586;2023-03-03T01:23:42;3.03;;;1.60;;
66972;SDS011;53902;51.466;-2.586;2023-03-03T01:26:11;2.92;;;1.85;;
66972;SDS011;53902;51.466;-2.586;2023-03-03T01:28:38;3.28;;;1.77;;
66972;SDS011;53902;51.466;-2.586;2023-03-03T01:31:04;4.50;;;1.63;;
66972;SDS011;53902;51.466;-2.586;2023-03-03T01:33:37;5.07;;;2.00;;
66972;SDS011;53902;51.466;-2.586;2023-03-03T01:36:08;4.22;;;2.90;;
66972;SDS011;53902;51.466;-2.586;2023-03-03T01:38:36;6.35;;;2.15;;
66972;SDS011;53902;51.466;-2.586;2023-03-03T01:41:04;2.90;;;1.80;;
66972;SDS011;53902;51.466;-2.586;2023-03-03T01:43:30;2.30;;;1.75;;
66972;SDS011;53902;51.466;-2.586;2023-03-03T01:48:24;5.78;;;2.00;;
66972;SDS011;53902;51.466;-2.586;2023-03-03T01:50:55;3.25;;;1.83;;
66972;SDS011;53902;51.466;-2.586;2023-03-03T01:53:43;5.65;;;2.00;;
66972;SDS011;53902;51.466;-2.586;2023-03-03T01:58:44;2.40;;;1.65;;
66972;SDS011;53902;51.466;-2.586;2023-03-03T02:01:15;2.30;;;1.60;;
66972;SDS011;53902;51.466;-2.586;2023-03-03T02:03:43;3.20;;;1.75;;
66972;SDS011;53902;51.466;-2.586;2023-03-03T02:06:10;5.88;;;1.70;;
66972;SDS011;53902;51.466;-2.586;2023-03-03T02:11:33;3.67;;;1.77;;
66972;SDS011;53902;51.466;-2.586;2023-03-03T02:16:33;3.03;;;1.60;;
66972;SDS011;53902;51.466;-2.586;2023-03-03T02:19:01;4.18;;;1.45;;
66972;SDS011;53902;51.466;-2.586;2023-03-03T02:21:32;3.60;;;1.90;;
66972;SDS011;53902;51.466;-2.586;2023-03-03T02:26:58;2.72;;;1.65;;
66972;SDS011;53902;51.466;-2.586;2023-03-03T02:29:26;3.90;;;1.80;;
66972;SDS011;53902;51.466;-2.586;2023-03-03T02:32:01;4.22;;;1.88;;
66972;SDS011;53902;51.466;-2.586;2023-03-03T02:34:29;5.75;;;2.15;;
66972;SDS011;53902;51.466;-2.586;2023-03-03T02:36:54;5.38;;;1.73;;
66972;SDS011;53902;51.466;-2.586;2023-03-03T02:39:21;2.00;;;1.90;;
66972;SDS011;53902;51.466;-2.586;2023-03-03T02:44:31;1.70;;;1.60;;
66972;SDS011;53902;51.466;-2.586;2023-03-03T02:46:57;2.55;;;1.70;;
66972;SDS011;53902;51.466;-2.586;2023-03-03T02:49:29;2.78;;;1.48;;
66972;SDS011;53902;51.466;-2.586;2023-03-03T02:51:59;1.50;;;1.30;;
66972;SDS011;53902;51.466;-2.586;2023-03-03T02:54:26;5.25;;;1.98;;
66972;SDS011;53902;51.466;-2.586;2023-03-03T02:56:54;5.75;;;3.00;;
66972;SDS011;53902;51.466;-2.586;2023-03-03T02:59:24;4.03;;;2.78;;
66972;SDS011;53902;51.466;-2.586;2023-03-03T03:01:50;7.47;;;2.60;;
66972;SDS011;53902;51.466;-2.586;2023-03-03T03:04:20;5.43;;;2.10;;
66972;SDS011;53902;51.466;-2.586;2023-03-03T03:06:51;4.53;;;2.75;;
66972;SDS011;53902;51.466;-2.586;2023-03-03T03:09:22;1.77;;;1.60;;
66972;SDS011;53902;51.466;-2.586;2023-03-03T03:11:52;2.97;;;1.73;;
66972;SDS011;53902;51.466;-2.586;2023-03-03T03:14:18;3.90;;;1.80;;
66972;SDS011;53902;51.466;-2.586;2023-03-03T03:16:43;3.40;;;2.17;;
66972;SDS011;53902;51.466;-2.586;2023-03-03T03:19:09;7.63;;;2.28;;
66972;SDS011;53902;51.466;-2.586;2023-03-03T03:21:34;4.10;;;2.00;;
66972;SDS011;53902;51.466;-2.586;2023-03-03T03:24:00;2.90;;;1.50;;
66972;SDS011;53902;51.466;-2.586;2023-03-03T03:26:27;3.33;;;1.60;;
66972;SDS011;53902;51.466;-2.586;2023-03-03T03:28:56;3.05;;;1.58;;
66972;SDS011;53902;51.466;-2.586;2023-03-03T03:31:29;3.22;;;1.92;;
66972;SDS011;53902;51.466;-2.586;2023-03-03T03:34:02;2.80;;;1.75;;
66972;SDS011;53902;51.466;-2.586;2023-03-03T03:36:30;3.30;;;1.80;;
66972;SDS011;53902;51.466;-2.586;2023-03-03T03:38:58;6.38;;;2.00;;
66972;SDS011;53902;51.466;-2.586;2023-03-03T03:41:26;3.53;;;2.30;;
66972;SDS011;53902;51.466;-2.586;2023-03-03T03:43:52;2.85;;;1.92;;
66972;SDS011;53902;51.466;-2.586;2023-03-03T03:46:17;2.83;;;1.95;;
66972;SDS011;53902;51.466;-2.586;2023-03-03T03:48:48;2.92;;;2.20;;
66972;SDS011;53902;51.466;-2.586;2023-03-03T03:51:21;4.07;;;2.25;;
66972;SDS011;53902;51.466;-2.586;2023-03-03T03:53:49;3.38;;;2.20;;
66972;SDS011;53902;51.466;-2.586;2023-03-03T03:56:15;4.20;;;1.95;;
66972;SDS011;53902;51.466;-2.586;2023-03-03T03:58:42;4.07;;;2.20;;
66972;SDS011;53902;51.466;-2.586;2023-03-03T04:01:08;4.55;;;2.20;;
66972;SDS011;53902;51.466;-2.586;2023-03-03T04:03:33;3.17;;;2.15;;
66972;SDS011;53902;51.466;-2.586;2023-03-03T04:05:59;3.03;;;2.08;;
66972;SDS011;53902;51.466;-2.586;2023-03-03T04:08:25;6.50;;;1.92;;
66972;SDS011;53902;51.466;-2.586;2023-03-03T04:10:50;2.55;;;1.90;;
66972;SDS011;53902;51.466;-2.586;2023-03-03T04:13:18;3.55;;;2.20;;
66972;SDS011;53902;51.466;-2.586;2023-03-03T04:15:43;4.60;;;1.80;;
66972;SDS011;53902;51.466;-2.586;2023-03-03T04:18:09;4.63;;;1.75;;
66972;SDS011;53902;51.466;-2.586;2023-03-03T04:20:40;3.65;;;1.45;;
66972;SDS011;53902;51.466;-2.586;2023-03-03T04:23:07;3.20;;;1.40;;
66972;SDS011;53902;51.466;-2.586;2023-03-03T04:25:33;3.15;;;1.73;;
66972;SDS011;53902;51.466;-2.586;2023-03-03T04:28:00;3.08;;;1.42;;
66972;SDS011;53902;51.466;-2.586;2023-03-03T04:30:28;4.35;;;1.73;;
66972;SDS011;53902;51.466;-2.586;2023-03-03T04:32:53;4.30;;;1.75;;
66972;SDS011;53902;51.466;-2.586;2023-03-03T04:35:19;1.83;;;1.30;;
66972;SDS011;53902;51.466;-2.586;2023-03-03T04:37:47;3.55;;;1.67;;
66972;SDS011;53902;51.466;-2.586;2023-03-03T04:40:15;2.20;;;1.58;;
66972;SDS011;53902;51.466;-2.586;2023-03-03T04:42:42;4.85;;;1.40;;
66972;SDS011;53902;51.466;-2.586;2023-03-03T04:45:10;1.80;;;1.45;;
66972;SDS011;53902;51.466;-2.586;2023-03-03T04:47:38;2.78;;;1.30;;
66972;SDS011;53902;51.466;-2.586;2023-03-03T04:50:04;1.90;;;1.30;;
66972;SDS011;53902;51.466;-2.586;2023-03-03T04:52:33;1.75;;;1.23;;
66972;SDS011;53902;51.466;-2.586;2023-03-03T04:54:59;1.35;;;1.20;;
66972;SDS011;53902;51.466;-2.586;2023-03-03T04:57:24;3.13;;;1.35;;
66972;SDS011;53902;51.466;-2.586;2023-03-03T04:59:49;2.97;;;1.70;;
66972;SDS011;53902;51.466;-2.586;2023-03-03T05:02:15;3.75;;;1.50;;
66972;SDS011;53902;51.466;-2.586;2023-03-03T05:04:48;3.47;;;1.55;;
66972;SDS011;53902;51.466;-2.586;2023-03-03T05:07:13;5.32;;;1.38;;
66972;SDS011;53902;51.466;-2.586;2023-03-03T05:09:39;3.63;;;1.63;;
66972;SDS011;53902;51.466;-2.586;2023-03-03T05:12:06;2.28;;;1.73;;
66972;SDS011;53902;51.466;-2.586;2023-03-03T05:14:34;2.97;;;1.60;;
66972;SDS011;53902;51.466;-2.586;2023-03-03T05:17:00;10.43;;;2.28;;
66972;SDS011;53902;51.466;-2.586;2023-03-03T05:19:26;2.80;;;1.70;;
66972;SDS011;53902;51.466;-2.586;2023-03-03T05:21:52;3.67;;;1.60;;
66972;SDS011;53902;51.466;-2.586;2023-03-03T05:24:21;3.58;;;1.75;;
66972;SDS011;53902;51.466;-2.586;2023-03-03T05:26:47;1.55;;;1.40;;
66972;SDS011;53902;51.466;-2.586;2023-03-03T05:29:15;3.88;;;1.73;;
66972;SDS011;53902;51.466;-2.586;2023-03-03T05:31:44;2.55;;;1.55;;
66972;SDS011;53902;51.466;-2.586;2023-03-03T05:34:09;5.70;;;2.03;;
66972;SDS011;53902;51.466;-2.586;2023-03-03T05:36:52;2.00;;;1.70;;
66972;SDS011;53902;51.466;-2.586;2023-03-03T05:39:20;3.22;;;1.70;;
66972;SDS011;53902;51.466;-2.586;2023-03-03T05:41:45;2.10;;;1.83;;
66972;SDS011;53902;51.466;-2.586;2023-03-03T05:44:11;1.83;;;1.65;;
66972;SDS011;53902;51.466;-2.586;2023-03-03T05:46:36;1.73;;;1.60;;
66972;SDS011;53902;51.466;-2.586;2023-03-03T05:49:04;4.05;;;1.63;;
66972;SDS011;53902;51.466;-2.586;2023-03-03T05:51:30;3.20;;;1.60;;
66972;SDS011;53902;51.466;-2.586;2023-03-03T05:53:55;4.53;;;1.63;;
66972;SDS011;53902;51.466;-2.586;2023-03-03T05:56:26;3.00;;;1.17;;
66972;SDS011;53902;51.466;-2.586;2023-03-03T05:58:51;2.40;;;1.50;;
66972;SDS011;53902;51.466;-2.586;2023-03-03T06:01:17;3.85;;;1.77;;
66972;SDS011;53902;51.466;-2.586;2023-03-03T06:03:42;2.03;;;1.30;;
66972;SDS011;53902;51.466;-2.586;2023-03-03T06:06:08;3.38;;;1.48;;
66972;SDS011;53902;51.466;-2.586;2023-03-03T06:08:33;2.13;;;1.25;;
66972;SDS011;53902;51.466;-2.586;2023-03-03T06:11:01;2.65;;;1.20;;
66972;SDS011;53902;51.466;-2.586;2023-03-03T06:13:27;2.38;;;1.30;;
66972;SDS011;53902;51.466;-2.586;2023-03-03T06:15:52;1.73;;;1.20;;
66972;SDS011;53902;51.466;-2.586;2023-03-03T06:18:18;2.75;;;1.25;;
66972;SDS011;53902;51.466;-2.586;2023-03-03T06:20:49;3.67;;;1.40;;
66972;SDS011;53902;51.466;-2.586;2023-03-03T06:23:18;3.63;;;1.38;;
66972;SDS011;53902;51.466;-2.586;2023-03-03T06:25:43;1.63;;;1.33;;
66972;SDS011;53902;51.466;-2.586;2023-03-03T06:28:09;3.20;;;1.02;;
66972;SDS011;53902;51.466;-2.586;2023-03-03T06:30:34;1.35;;;1.20;;
66972;SDS011;53902;51.466;-2.586;2023-03-03T06:33:17;5.35;;;1.60;;
66972;SDS011;53902;51.466;-2.586;2023-03-03T06:35:43;3.15;;;1.50;;
66972;SDS011;53902;51.466;-2.586;2023-03-03T06:38:10;3.20;;;1.90;;
66972;SDS011;53902;51.466;-2.586;2023-03-03T06:40:41;5.03;;;1.98;;
66972;SDS011;53902;51.466;-2.586;2023-03-03T06:43:06;1.95;;;1.42;;
66972;SDS011;53902;51.466;-2.586;2023-03-03T06:45:32;5.85;;;1.90;;
66972;SDS011;53902;51.466;-2.586;2023-03-03T06:47:57;2.38;;;1.50;;
66972;SDS011;53902;51.466;-2.586;2023-03-03T06:50:23;2.60;;;1.70;;
66972;SDS011;53902;51.466;-2.586;2023-03-03T06:52:48;3.45;;;1.52;;
66972;SDS011;53902;51.466;-2.586;2023-03-03T06:55:20;1.60;;;1.38;;
66972;SDS011;53902;51.466;-2.586;2023-03-03T06:57:47;2.42;;;1.50;;
66972;SDS011;53902;51.466;-2.586;2023-03-03T07:00:22;2.45;;;1.70;;
66972;SDS011;53902;51.466;-2.586;2023-03-03T07:02:53;1.73;;;1.40;;
66972;SDS011;53902;51.466;-2.586;2023-03-03T07:07:55;3.13;;;1.55;;
66972;SDS011;53902;51.466;-2.586;2023-03-03T07:10:27;3.75;;;1.65;;
66972;SDS011;53902;51.466;-2.586;2023-03-03T07:12:55;3.75;;;1.92;;
66972;SDS011;53902;51.466;-2.586;2023-03-03T07:15:34;5.63;;;1.63;;
66972;SDS011;53902;51.466;-2.586;2023-03-03T07:18:02;3.65;;;1.60;;
66972;SDS011;53902;51.466;-2.586;2023-03-03T07:20:45;4.03;;;1.58;;
66972;SDS011;53902;51.466;-2.586;2023-03-03T07:26:11;1.45;;;1.35;;
66972;SDS011;53902;51.466;-2.586;2023-03-03T07:28:43;2.67;;;1.55;;
66972;SDS011;53902;51.466;-2.586;2023-03-03T07:31:21;3.65;;;1.70;;
66972;SDS011;53902;51.466;-2.586;2023-03-03T07:33:51;2.63;;;1.80;;
66972;SDS011;53902;51.466;-2.586;2023-03-03T07:38:59;4.07;;;2.70;;
66972;SDS011;53902;51.466;-2.586;2023-03-03T07:41:30;4.15;;;2.65;;
66972;SDS011;53902;51.466;-2.586;2023-03-03T07:46:43;4.13;;;2.10;;
66972;SDS011;53902;51.466;-2.586;2023-03-03T07:52:00;2.75;;;1.80;;
66972;SDS011;53902;51.466;-2.586;2023-03-03T07:54:46;3.85;;;1.55;;
66972;SDS011;53902;51.466;-2.586;2023-03-03T07:59:45;2.85;;;1.83;;
66972;SDS011;53902;51.466;-2.586;2023-03-03T08:05:41;1.80;;;1.48;;
66972;SDS011;53902;51.466;-2.586;2023-03-03T08:08:39;3.80;;;1.70;;
66972;SDS011;53902;51.466;-2.586;2023-03-03T08:11:07;4.95;;;1.73;;
66972;SDS011;53902;51.466;-2.586;2023-03-03T08:18:39;2.90;;;1.80;;
66972;SDS011;53902;51.466;-2.586;2023-03-03T08:23:51;2.53;;;1.60;;
66972;SDS011;53902;51.466;-2.586;2023-03-03T08:26:20;3.33;;;1.70;;
66972;SDS011;53902;51.466;-2.586;2023-03-03T08:28:46;4.70;;;1.70;;
66972;SDS011;53902;51.466;-2.586;2023-03-03T08:31:12;3.92;;;1.80;;
66972;SDS011;53902;51.466;-2.586;2023-03-03T08:33:40;2.58;;;1.70;;
66972;SDS011;53902;51.466;-2.586;2023-03-03T08:36:06;2.60;;;1.45;;
66972;SDS011;53902;51.466;-2.586;2023-03-03T08:38:34;2.28;;;1.30;;
66972;SDS011;53902;51.466;-2.586;2023-03-03T08:41:09;3.67;;;1.70;;
66972;SDS011;53902;51.466;-2.586;2023-03-03T08:43:35;2.97;;;1.63;;
66972;SDS011;53902;51.466;-2.586;2023-03-03T08:46:04;5.75;;;2.30;;
66972;SDS011;53902;51.466;-2.586;2023-03-03T08:48:30;5.22;;;2.00;;
66972;SDS011;53902;51.466;-2.586;2023-03-03T08:50:56;3.13;;;1.88;;
66972;SDS011;53902;51.466;-2.586;2023-03-03T08:53:22;4.10;;;1.70;;
66972;SDS011;53902;51.466;-2.586;2023-03-03T08:55:48;3.72;;;1.73;;
66972;SDS011;53902;51.466;-2.586;2023-03-03T08:58:16;2.60;;;1.98;;
66972;SDS011;53902;51.466;-2.586;2023-03-03T09:00:43;3.45;;;1.70;;
66972;SDS011;53902;51.466;-2.586;2023-03-03T09:03:09;2.50;;;1.90;;
66972;SDS011;53902;51.466;-2.586;2023-03-03T09:05:37;2.13;;;1.73;;
66972;SDS011;53902;51.466;-2.586;2023-03-03T09:08:04;3.03;;;2.00;;
66972;SDS011;53902;51.466;-2.586;2023-03-03T09:10:30;4.13;;;2.00;;
66972;SDS011;53902;51.466;-2.586;2023-03-03T09:13:05;3.03;;;1.88;;
66972;SDS011;53902;51.466;-2.586;2023-03-03T09:15:35;2.00;;;1.80;;
66972;SDS011;53902;51.466;-2.586;2023-03-03T09:18:09;2.45;;;1.70;;
66972;SDS011;53902;51.466;-2.586;2023-03-03T09:20:46;2.63;;;1.90;;
66972;SDS011;53902;51.466;-2.586;2023-03-03T09:26:23;7.00;;;1.85;;
66972;SDS011;53902;51.466;-2.586;2023-03-03T09:28:50;3.72;;;1.60;;
66972;SDS011;53902;51.466;-2.586;2023-03-03T09:31:26;3.55;;;2.28;;
66972;SDS011;53902;51.466;-2.586;2023-03-03T09:33:55;3.75;;;1.60;;
66972;SDS011;53902;51.466;-2.586;2023-03-03T09:38:53;4.05;;;1.75;;
66972;SDS011;53902;51.466;-2.586;2023-03-03T09:44:11;3.25;;;1.67;;
66972;SDS011;53902;51.466;-2.586;2023-03-03T10:16:30;3.88;;;1.50;;
66972;SDS011;53902;51.466;-2.586;2023-03-03T10:19:28;2.30;;;1.38;;
66972;SDS011;53902;51.466;-2.586;2023-03-03T10:40:45;4.70;;;1.70;;
66972;SDS011;53902;51.466;-2.586;2023-03-03T10:46:14;3.60;;;2.13;;
66972;SDS011;53902;51.466;-2.586;2023-03-03T10:48:55;1.80;;;1.55;;
66972;SDS011;53902;51.466;-2.586;2023-03-03T10:57:17;32.22;;;2.17;;
66972;SDS011;53902;51.466;-2.586;2023-03-03T11:00:14;2.88;;;1.88;;
66972;SDS011;53902;51.466;-2.586;2023-03-03T11:02:48;1.77;;;1.60;;
66972;SDS011;53902;51.466;-2.586;2023-03-03T11:14:00;3.05;;;1.70;;
66972;SDS011;53902;51.466;-2.586;2023-03-03T11:19:01;2.13;;;1.70;;
66972;SDS011;53902;51.466;-2.586;2023-03-03T11:24:49;2.63;;;1.55;;
66972;SDS011;53902;51.466;-2.586;2023-03-03T11:33:09;2.10;;;1.63;;
66972;SDS011;53902;51.466;-2.586;2023-03-03T11:38:36;1.85;;;1.38;;
66972;SDS011;53902;51.466;-2.586;2023-03-03T11:41:40;3.00;;;1.00;;
66972;SDS011;53902;51.466;-2.586;2023-03-03T11:44:20;1.17;;;0.90;;
66972;SDS011;53902;51.466;-2.586;2023-03-03T11:49:46;3.08;;;1.40;;
66972;SDS011;53902;51.466;-2.586;2023-03-03T11:52:23;2.47;;;1.45;;
66972;SDS011;53902;51.466;-2.586;2023-03-03T11:54:59;1.65;;;1.10;;
66972;SDS011;53902;51.466;-2.586;2023-03-03T12:00:19;1.42;;;1.15;;
66972;SDS011;53902;51.466;-2.586;2023-03-03T12:05:40;2.08;;;1.00;;
66972;SDS011;53902;51.466;-2.586;2023-03-03T12:08:22;1.33;;;1.13;;
66972;SDS011;53902;51.466;-2.586;2023-03-03T12:40:08;3.45;;;1.40;;
66972;SDS011;53902;51.466;-2.586;2023-03-03T12:49:24;3.95;;;2.28;;
66972;SDS011;53902;51.466;-2.586;2023-03-03T12:55:09;3.63;;;1.70;;
66972;SDS011;53902;51.466;-2.586;2023-03-03T13:00:16;1.35;;;1.17;;
66972;SDS011;53902;51.466;-2.586;2023-03-03T13:11:50;1.98;;;1.15;;
66972;SDS011;53902;51.466;-2.586;2023-03-03T13:20:11;2.20;;;1.80;;
66972;SDS011;53902;51.466;-2.586;2023-03-03T13:23:21;4.80;;;2.10;;
66972;SDS011;53902;51.466;-2.586;2023-03-03T13:28:39;3.10;;;2.17;;
66972;SDS011;53902;51.466;-2.586;2023-03-03T13:31:14;2.63;;;1.70;;
66972;SDS011;53902;51.466;-2.586;2023-03-03T13:33:43;2.97;;;1.90;;
66972;SDS011;53902;51.466;-2.586;2023-03-03T13:36:21;5.03;;;1.75;;
66972;SDS011;53902;51.466;-2.586;2023-03-03T13:38:55;3.25;;;2.05;;
66972;SDS011;53902;51.466;-2.586;2023-03-03T13:41:35;1.60;;;1.50;;
66972;SDS011;53902;51.466;-2.586;2023-03-03T13:44:11;3.15;;;2.10;;
66972;SDS011;53902;51.466;-2.586;2023-03-03T13:49:25;2.65;;;1.80;;
66972;SDS011;53902;51.466;-2.586;2023-03-03T13:52:09;2.65;;;2.10;;
66972;SDS011;53902;51.466;-2.586;2023-03-03T13:54:55;3.40;;;2.00;;
66972;SDS011;53902;51.466;-2.586;2023-03-03T14:13:12;4.93;;;3.22;;
66972;SDS011;53902;51.466;-2.586;2023-03-03T14:18:23;5.30;;;3.58;;
66972;SDS011;53902;51.466;-2.586;2023-03-03T14:20:55;5.18;;;3.70;;
66972;SDS011;53902;51.466;-2.586;2023-03-03T14:23:26;8.43;;;4.97;;
66972;SDS011;53902;51.466;-2.586;2023-03-03T14:28:28;20.60;;;11.40;;
66972;SDS011;53902;51.466;-2.586;2023-03-03T14:31:26;8.75;;;4.75;;
66972;SDS011;53902;51.466;-2.586;2023-03-03T14:36:39;10.27;;;5.75;;
66972;SDS011;53902;51.466;-2.586;2023-03-03T14:39:27;8.40;;;5.20;;
66972;SDS011;53902;51.466;-2.586;2023-03-03T14:42:01;7.63;;;4.78;;
66972;SDS011;53902;51.466;-2.586;2023-03-03T14:47:23;8.45;;;5.47;;
66972;SDS011;53902;51.466;-2.586;2023-03-03T14:49:53;12.48;;;4.85;;
66972;SDS011;53902;51.466;-2.586;2023-03-03T14:52:27;7.10;;;5.03;;
66972;SDS011;53902;51.466;-2.586;2023-03-03T14:54:55;10.82;;;5.75;;
66972;SDS011;53902;51.466;-2.586;2023-03-03T15:05:25;9.63;;;5.72;;
66972;SDS011;53902;51.466;-2.586;2023-03-03T15:07:52;11.90;;;7.70;;
66972;SDS011;53902;51.466;-2.586;2023-03-03T15:10:38;13.30;;;7.53;;
66972;SDS011;53902;51.466;-2.586;2023-03-03T15:15:51;11.50;;;7.03;;
66972;SDS011;53902;51.466;-2.586;2023-03-03T15:18:23;10.70;;;5.95;;
66972;SDS011;53902;51.466;-2.586;2023-03-03T15:26:22;11.40;;;6.50;;
66972;SDS011;53902;51.466;-2.586;2023-03-03T15:29:03;13.18;;;6.82;;
66972;SDS011;53902;51.466;-2.586;2023-03-03T15:31:57;12.85;;;7.93;;
66972;SDS011;53902;51.466;-2.586;2023-03-03T15:34:39;12.30;;;7.38;;
66972;SDS011;53902;51.466;-2.586;2023-03-03T15:40:04;14.85;;;7.95;;
66972;SDS011;53902;51.466;-2.586;2023-03-03T15:45:57;12.93;;;7.25;;
66972;SDS011;53902;51.466;-2.586;2023-03-03T15:48:45;17.40;;;8.25;;
66972;SDS011;53902;51.466;-2.586;2023-03-03T15:51:29;14.57;;;7.82;;
66972;SDS011;53902;51.466;-2.586;2023-03-03T15:57:00;10.90;;;7.10;;
66972;SDS011;53902;51.466;-2.586;2023-03-03T16:02:48;14.02;;;7.38;;
66972;SDS011;53902;51.466;-2.586;2023-03-03T16:05:36;12.75;;;6.85;;
66972;SDS011;53902;51.466;-2.586;2023-03-03T16:10:48;14.18;;;7.50;;
66972;SDS011;53902;51.466;-2.586;2023-03-03T16:15:54;15.48;;;6.60;;
66972;SDS011;53902;51.466;-2.586;2023-03-03T16:22:02;16.48;;;8.38;;
66972;SDS011;53902;51.466;-2.586;2023-03-03T16:33:01;14.55;;;8.73;;
66972;SDS011;53902;51.466;-2.586;2023-03-03T16:35:46;12.13;;;7.55;;
66972;SDS011;53902;51.466;-2.586;2023-03-03T16:38:31;11.48;;;6.95;;
66972;SDS011;53902;51.466;-2.586;2023-03-03T16:41:02;16.65;;;9.63;;
66972;SDS011;53902;51.466;-2.586;2023-03-03T16:45:58;16.92;;;9.30;;
66972;SDS011;53902;51.466;-2.586;2023-03-03T16:48:47;17.10;;;9.75;;
66972;SDS011;53902;51.466;-2.586;2023-03-03T16:51:44;18.90;;;9.48;;
66972;SDS011;53902;51.466;-2.586;2023-03-03T16:57:25;12.93;;;7.65;;
66972;SDS011;53902;51.466;-2.586;2023-03-03T17:00:04;10.45;;;6.47;;
66972;SDS011;53902;51.466;-2.586;2023-03-03T17:10:12;10.85;;;6.55;;
66972;SDS011;53902;51.466;-2.586;2023-03-03T17:24:36;11.63;;;6.28;;
66972;SDS011;53902;51.466;-2.586;2023-03-03T17:38:30;21.15;;;9.85;;
66972;SDS011;53902;51.466;-2.586;2023-03-03T17:43:39;17.42;;;8.57;;
66972;SDS011;53902;51.466;-2.586;2023-03-03T17:46:29;26.85;;;10.43;;
66972;SDS011;53902;51.466;-2.586;2023-03-03T17:51:58;17.00;;;8.75;;
66972;SDS011;53902;51.466;-2.586;2023-03-03T18:00:17;13.80;;;7.55;;
66972;SDS011;53902;51.466;-2.586;2023-03-03T18:05:46;13.98;;;7.68;;
66972;SDS011;53902;51.466;-2.586;2023-03-03T18:26:49;8.73;;;6.05;;
66972;SDS011;53902;51.466;-2.586;2023-03-03T18:37:50;9.10;;;5.95;;
66972;SDS011;53902;51.466;-2.586;2023-03-03T18:42:34;14.45;;;9.00;;
66972;SDS011;53902;51.466;-2.586;2023-03-03T18:53:28;10.30;;;6.75;;
66972;SDS011;53902;51.466;-2.586;2023-03-03T18:56:30;10.52;;;6.60;;
66972;SDS011;53902;51.466;-2.586;2023-03-03T18:59:11;13.90;;;7.13;;
66972;SDS011;53902;51.466;-2.586;2023-03-03T19:04:40;10.75;;;6.20;;
66972;SDS011;53902;51.466;-2.586;2023-03-03T19:07:12;12.02;;;6.07;;
66972;SDS011;53902;51.466;-2.586;2023-03-03T19:09:54;9.43;;;6.22;;
66972;SDS011;53902;51.466;-2.586;2023-03-03T19:12:46;10.82;;;6.20;;
66972;SDS011;53902;51.466;-2.586;2023-03-03T19:20:41;12.18;;;6.88;;
66972;SDS011;53902;51.466;-2.586;2023-03-03T19:23:13;14.10;;;7.32;;
66972;SDS011;53902;51.466;-2.586;2023-03-03T19:25:42;13.93;;;7.65;;
66972;SDS011;53902;51.466;-2.586;2023-03-03T19:30:44;17.10;;;8.10;;
66972;SDS011;53902;51.466;-2.586;2023-03-03T19:41:45;10.60;;;6.50;;
66972;SDS011;53902;51.466;-2.586;2023-03-03T19:47:43;12.90;;;6.95;;
66972;SDS011;53902;51.466;-2.586;2023-03-03T19:53:00;15.32;;;7.75;;
66972;SDS011;53902;51.466;-2.586;2023-03-03T20:09:44;17.65;;;9.13;;
66972;SDS011;53902;51.466;-2.586;2023-03-03T20:18:46;14.77;;;8.38;;
66972;SDS011;53902;51.466;-2.586;2023-03-03T20:32:19;15.85;;;8.57;;
66972;SDS011;53902;51.466;-2.586;2023-03-03T20:35:26;18.65;;;8.35;;
66972;SDS011;53902;51.466;-2.586;2023-03-03T21:02:46;16.42;;;9.20;;
66972;SDS011;53902;51.466;-2.586;2023-03-03T21:05:27;13.52;;;8.15;;
66972;SDS011;53902;51.466;-2.586;2023-03-03T21:08:02;13.75;;;7.38;;
66972;SDS011;53902;51.466;-2.586;2023-03-03T21:13:24;13.68;;;7.65;;
66972;SDS011;53902;51.466;-2.586;2023-03-03T21:16:05;15.32;;;9.85;;
66972;SDS011;53902;51.466;-2.586;2023-03-03T21:21:50;16.98;;;9.30;;
66972;SDS011;53902;51.466;-2.586;2023-03-03T21:24:16;14.70;;;8.73;;
66972;SDS011;53902;51.466;-2.586;2023-03-03T21:29:24;16.52;;;9.10;;
66972;SDS011;53902;51.466;-2.586;2023-03-03T21:35:03;16.08;;;8.93;;
66972;SDS011;53902;51.466;-2.586;2023-03-03T21:42:49;28.48;;;14.98;;
66972;SDS011;53902;51.466;-2.586;2023-03-03T21:45:24;28.92;;;15.90;;
66972;SDS011;53902;51.466;-2.586;2023-03-03T21:47:51;22.13;;;10.77;;
66972;SDS011;53902;51.466;-2.586;2023-03-03T21:50:19;28.23;;;12.15;;
66972;SDS011;53902;51.466;-2.586;2023-03-03T21:52:49;26.88;;;11.13;;
66972;SDS011;53902;51.466;-2.586;2023-03-03T21:55:14;28.08;;;13.90;;
66972;SDS011;53902;51.466;-2.586;2023-03-03T21:57:40;31.52;;;14.23;;
66972;SDS011;53902;51.466;-2.586;2023-03-03T22:00:08;23.27;;;11.18;;
66972;SDS011;53902;51.466;-2.586;2023-03-03T22:02:34;20.98;;;11.02;;
66972;SDS011;53902;51.466;-2.586;2023-03-03T22:05:02;23.13;;;11.75;;
66972;SDS011;53902;51.466;-2.586;2023-03-03T22:07:27;31.30;;;14.60;;
66972;SDS011;53902;51.466;-2.586;2023-03-03T22:09:53;31.27;;;14.52;;
66972;SDS011;53902;51.466;-2.586;2023-03-03T22:12:19;28.33;;;14.35;;
66972;SDS011;53902;51.466;-2.586;2023-03-03T22:14:44;24.10;;;12.13;;
66972;SDS011;53902;51.466;-2.586;2023-03-03T22:17:19;37.00;;;15.77;;
66972;SDS011;53902;51.466;-2.586;2023-03-03T22:19:44;31.42;;;15.18;;
66972;SDS011;53902;51.466;-2.586;2023-03-03T22:22:12;43.35;;;16.10;;
66972;SDS011;53902;51.466;-2.586;2023-03-03T22:24:38;27.85;;;11.90;;
66972;SDS011;53902;51.466;-2.586;2023-03-03T22:27:03;21.02;;;10.90;;
66972;SDS011;53902;51.466;-2.586;2023-03-03T22:29:30;23.55;;;11.98;;
66972;SDS011;53902;51.466;-2.586;2023-03-03T22:31:58;28.85;;;12.40;;
66972;SDS011;53902;51.466;-2.586;2023-03-03T22:34:23;17.98;;;9.68;;
66972;SDS011;53902;51.466;-2.586;2023-03-03T22:36:49;14.57;;;8.50;;
66972;SDS011;53902;51.466;-2.586;2023-03-03T22:39:14;19.83;;;10.30;;
66972;SDS011;53902;51.466;-2.586;2023-03-03T22:41:43;15.32;;;8.93;;
66972;SDS011;53902;51.466;-2.586;2023-03-03T22:44:10;17.55;;;8.68;;